sensor_id;sensor_type;location;lat;lon;timestamp;P1;durP1;ratioP1;P2;durP2;ratioP2
71108;SDS011;59614;51.012;-1.648;2022-12-01T00:02:02;237.30;;;26.00;;
71108;SDS011;59614;51.012;-1.648;2022-12-01T00:04:27;178.88;;;23.83;;
71108;SDS011;59614;51.012;-1.648;2022-12-01T00:06:53;150.85;;;24.88;;
71108;SDS011;59614;51.012;-1.648;2022-12-01T00:09:18;113.78;;;20.35;;
71108;SDS011;59614;51.012;-1.648;2022-12-01T00:12:02;148.23;;;21.55;;
71108;SDS011;59614;51.012;-1.648;2022-12-01T00:14:28;192.05;;;20.77;;
71108;SDS011;59614;51.012;-1.648;2022-12-01T00:16:53;131.23;;;19.58;;
71108;SDS011;59614;51.012;-1.648;2022-12-01T00:19:19;162.15;;;19.10;;
71108;SDS011;59614;51.012;-1.648;2022-12-01T00:21:48;168.15;;;21.25;;
71108;SDS011;59614;51.012;-1.648;2022-12-01T00:24:14;99.70;;;19.17;;
71108;SDS011;59614;51.012;-1.648;2022-12-01T00:26:39;115.35;;;20.10;;
71108;SDS011;59614;51.012;-1.648;2022-12-01T00:29:05;140.15;;;19.77;;
71108;SDS011;59614;51.012;-1.648;2022-12-01T00:31:30;145.65;;;23.23;;
71108;SDS011;59614;51.012;-1.648;2022-12-01T00:33:55;181.50;;;23.33;;
71108;SDS011;59614;51.012;-1.648;2022-12-01T00:36:21;248.77;;;22.65;;
71108;SDS011;59614;51.012;-1.648;2022-12-01T00:38:47;220.95;;;28.65;;
71108;SDS011;59614;51.012;-1.648;2022-12-01T00:41:16;150.75;;;21.60;;
71108;SDS011;59614;51.012;-1.648;2022-12-01T00:43:42;167.93;;;23.23;;
71108;SDS011;59614;51.012;-1.648;2022-12-01T00:46:07;104.93;;;19.80;;
71108;SDS011;59614;51.012;-1.648;2022-12-01T00:48:33;203.88;;;23.75;;
71108;SDS011;59614;51.012;-1.648;2022-12-01T00:50:58;210.35;;;25.08;;
71108;SDS011;59614;51.012;-1.648;2022-12-01T00:53:23;160.73;;;21.58;;
71108;SDS011;59614;51.012;-1.648;2022-12-01T00:55:49;157.23;;;21.55;;
71108;SDS011;59614;51.012;-1.648;2022-12-01T00:58:15;109.38;;;21.67;;
71108;SDS011;59614;51.012;-1.648;2022-12-01T01:00:41;159.70;;;22.95;;
71108;SDS011;59614;51.012;-1.648;2022-12-01T01:03:06;167.48;;;22.63;;
71108;SDS011;59614;51.012;-1.648;2022-12-01T01:05:36;136.32;;;21.17;;
71108;SDS011;59614;51.012;-1.648;2022-12-01T01:08:06;175.40;;;21.60;;
71108;SDS011;59614;51.012;-1.648;2022-12-01T01:10:32;143.45;;;21.35;;
71108;SDS011;59614;51.012;-1.648;2022-12-01T01:12:57;111.50;;;21.58;;
71108;SDS011;59614;51.012;-1.648;2022-12-01T01:15:22;145.65;;;23.83;;
71108;SDS011;59614;51.012;-1.648;2022-12-01T01:17:48;142.60;;;27.55;;
71108;SDS011;59614;51.012;-1.648;2022-12-01T01:20:13;122.32;;;23.25;;
71108;SDS011;59614;51.012;-1.648;2022-12-01T01:22:39;132.60;;;22.27;;
71108;SDS011;59614;51.012;-1.648;2022-12-01T01:25:04;107.25;;;22.20;;
71108;SDS011;59614;51.012;-1.648;2022-12-01T01:27:30;93.30;;;21.90;;
71108;SDS011;59614;51.012;-1.648;2022-12-01T01:29:55;105.30;;;22.92;;
71108;SDS011;59614;51.012;-1.648;2022-12-01T01:32:21;102.82;;;23.58;;
71108;SDS011;59614;51.012;-1.648;2022-12-01T01:34:46;116.45;;;24.55;;
71108;SDS011;59614;51.012;-1.648;2022-12-01T01:37:12;111.63;;;25.08;;
71108;SDS011;59614;51.012;-1.648;2022-12-01T01:39:37;79.35;;;22.50;;
71108;SDS011;59614;51.012;-1.648;2022-12-01T01:42:03;82.47;;;24.52;;
71108;SDS011;59614;51.012;-1.648;2022-12-01T01:47:09;101.82;;;24.65;;
71108;SDS011;59614;51.012;-1.648;2022-12-01T01:49:35;128.93;;;25.58;;
71108;SDS011;59614;51.012;-1.648;2022-12-01T01:52:01;84.80;;;21.90;;
71108;SDS011;59614;51.012;-1.648;2022-12-01T01:54:35;123.25;;;26.35;;
71108;SDS011;59614;51.012;-1.648;2022-12-01T01:57:03;78.20;;;23.15;;
71108;SDS011;59614;51.012;-1.648;2022-12-01T01:59:32;81.57;;;22.73;;
71108;SDS011;59614;51.012;-1.648;2022-12-01T02:02:08;120.05;;;25.15;;
71108;SDS011;59614;51.012;-1.648;2022-12-01T02:04:39;69.78;;;22.27;;
71108;SDS011;59614;51.012;-1.648;2022-12-01T02:07:09;73.05;;;21.20;;
71108;SDS011;59614;51.012;-1.648;2022-12-01T02:09:36;71.55;;;22.05;;
71108;SDS011;59614;51.012;-1.648;2022-12-01T02:12:05;91.15;;;24.98;;
71108;SDS011;59614;51.012;-1.648;2022-12-01T02:14:56;109.03;;;25.42;;
71108;SDS011;59614;51.012;-1.648;2022-12-01T02:18:03;91.45;;;23.88;;
71108;SDS011;59614;51.012;-1.648;2022-12-01T02:23:23;103.13;;;23.17;;
71108;SDS011;59614;51.012;-1.648;2022-12-01T02:26:35;74.05;;;20.35;;
71108;SDS011;59614;51.012;-1.648;2022-12-01T02:43:06;72.70;;;15.27;;
71108;SDS011;59614;51.012;-1.648;2022-12-01T02:48:09;85.93;;;18.33;;
71108;SDS011;59614;51.012;-1.648;2022-12-01T02:50:42;35.10;;;14.32;;
71108;SDS011;59614;51.012;-1.648;2022-12-01T02:55:44;34.97;;;13.27;;
71108;SDS011;59614;51.012;-1.648;2022-12-01T02:58:20;41.97;;;15.27;;
71108;SDS011;59614;51.012;-1.648;2022-12-01T03:06:45;51.83;;;16.30;;
71108;SDS011;59614;51.012;-1.648;2022-12-01T03:09:44;63.00;;;14.23;;
71108;SDS011;59614;51.012;-1.648;2022-12-01T03:17:27;40.75;;;14.77;;
71108;SDS011;59614;51.012;-1.648;2022-12-01T03:19:59;31.25;;;12.13;;
71108;SDS011;59614;51.012;-1.648;2022-12-01T03:22:50;125.40;;;15.90;;
71108;SDS011;59614;51.012;-1.648;2022-12-01T03:25:19;68.20;;;15.30;;
71108;SDS011;59614;51.012;-1.648;2022-12-01T03:27:46;41.27;;;13.10;;
71108;SDS011;59614;51.012;-1.648;2022-12-01T03:30:14;55.83;;;13.82;;
71108;SDS011;59614;51.012;-1.648;2022-12-01T03:32:45;92.97;;;14.75;;
71108;SDS011;59614;51.012;-1.648;2022-12-01T03:37:48;27.30;;;11.35;;
71108;SDS011;59614;51.012;-1.648;2022-12-01T03:40:16;33.60;;;11.40;;
71108;SDS011;59614;51.012;-1.648;2022-12-01T03:42:47;103.63;;;13.77;;
71108;SDS011;59614;51.012;-1.648;2022-12-01T03:48:20;24.88;;;10.15;;
71108;SDS011;59614;51.012;-1.648;2022-12-01T03:56:38;51.00;;;10.73;;
71108;SDS011;59614;51.012;-1.648;2022-12-01T03:59:09;39.65;;;10.20;;
71108;SDS011;59614;51.012;-1.648;2022-12-01T04:01:35;35.22;;;10.60;;
71108;SDS011;59614;51.012;-1.648;2022-12-01T04:04:05;29.67;;;9.52;;
71108;SDS011;59614;51.012;-1.648;2022-12-01T04:06:32;27.48;;;10.77;;
71108;SDS011;59614;51.012;-1.648;2022-12-01T04:08:58;24.67;;;9.70;;
71108;SDS011;59614;51.012;-1.648;2022-12-01T04:11:23;24.88;;;10.18;;
71108;SDS011;59614;51.012;-1.648;2022-12-01T04:14:07;28.80;;;10.70;;
71108;SDS011;59614;51.012;-1.648;2022-12-01T04:16:33;30.33;;;9.13;;
71108;SDS011;59614;51.012;-1.648;2022-12-01T04:18:58;41.25;;;10.38;;
71108;SDS011;59614;51.012;-1.648;2022-12-01T04:21:23;52.22;;;14.52;;
71108;SDS011;59614;51.012;-1.648;2022-12-01T04:23:49;36.38;;;12.20;;
71108;SDS011;59614;51.012;-1.648;2022-12-01T04:26:30;31.98;;;11.30;;
71108;SDS011;59614;51.012;-1.648;2022-12-01T04:28:58;30.67;;;11.30;;
71108;SDS011;59614;51.012;-1.648;2022-12-01T04:31:24;76.20;;;16.40;;
71108;SDS011;59614;51.012;-1.648;2022-12-01T04:33:50;64.80;;;16.17;;
71108;SDS011;59614;51.012;-1.648;2022-12-01T04:36:15;60.20;;;16.65;;
71108;SDS011;59614;51.012;-1.648;2022-12-01T04:38:41;64.78;;;16.15;;
71108;SDS011;59614;51.012;-1.648;2022-12-01T04:41:07;78.47;;;16.92;;
71108;SDS011;59614;51.012;-1.648;2022-12-01T04:43:36;76.32;;;16.52;;
71108;SDS011;59614;51.012;-1.648;2022-12-01T04:46:02;122.03;;;18.13;;
71108;SDS011;59614;51.012;-1.648;2022-12-01T04:48:29;70.78;;;15.65;;
71108;SDS011;59614;51.012;-1.648;2022-12-01T04:50:55;87.95;;;16.00;;
71108;SDS011;59614;51.012;-1.648;2022-12-01T04:53:20;60.17;;;16.23;;
71108;SDS011;59614;51.012;-1.648;2022-12-01T04:55:46;118.55;;;16.85;;
71108;SDS011;59614;51.012;-1.648;2022-12-01T04:58:11;62.50;;;14.52;;
71108;SDS011;59614;51.012;-1.648;2022-12-01T05:00:37;125.88;;;17.80;;
71108;SDS011;59614;51.012;-1.648;2022-12-01T05:03:02;111.55;;;14.10;;
71108;SDS011;59614;51.012;-1.648;2022-12-01T05:05:28;136.43;;;13.93;;
71108;SDS011;59614;51.012;-1.648;2022-12-01T05:07:54;72.50;;;11.98;;
71108;SDS011;59614;51.012;-1.648;2022-12-01T05:10:20;68.85;;;11.48;;
71108;SDS011;59614;51.012;-1.648;2022-12-01T05:12:46;108.05;;;12.40;;
71108;SDS011;59614;51.012;-1.648;2022-12-01T05:15:12;95.88;;;13.35;;
71108;SDS011;59614;51.012;-1.648;2022-12-01T05:17:37;70.80;;;11.18;;
71108;SDS011;59614;51.012;-1.648;2022-12-01T05:20:03;99.78;;;13.73;;
71108;SDS011;59614;51.012;-1.648;2022-12-01T05:22:50;103.47;;;12.03;;
71108;SDS011;59614;51.012;-1.648;2022-12-01T05:25:16;85.35;;;11.75;;
71108;SDS011;59614;51.012;-1.648;2022-12-01T05:27:42;109.35;;;11.93;;
71108;SDS011;59614;51.012;-1.648;2022-12-01T05:30:08;89.22;;;12.25;;
71108;SDS011;59614;51.012;-1.648;2022-12-01T05:32:34;172.90;;;14.35;;
71108;SDS011;59614;51.012;-1.648;2022-12-01T05:34:59;57.95;;;11.95;;
71108;SDS011;59614;51.012;-1.648;2022-12-01T05:37:25;42.20;;;10.60;;
71108;SDS011;59614;51.012;-1.648;2022-12-01T05:39:50;114.28;;;12.15;;
71108;SDS011;59614;51.012;-1.648;2022-12-01T05:42:16;126.53;;;13.60;;
71108;SDS011;59614;51.012;-1.648;2022-12-01T05:44:41;111.65;;;14.68;;
71108;SDS011;59614;51.012;-1.648;2022-12-01T05:47:07;155.10;;;14.10;;
71108;SDS011;59614;51.012;-1.648;2022-12-01T05:49:32;185.23;;;13.25;;
71108;SDS011;59614;51.012;-1.648;2022-12-01T05:51:57;124.88;;;12.95;;
71108;SDS011;59614;51.012;-1.648;2022-12-01T05:54:23;142.75;;;14.77;;
71108;SDS011;59614;51.012;-1.648;2022-12-01T05:56:48;130.57;;;15.02;;
71108;SDS011;59614;51.012;-1.648;2022-12-01T05:59:14;140.10;;;12.77;;
71108;SDS011;59614;51.012;-1.648;2022-12-01T06:01:39;113.43;;;14.10;;
71108;SDS011;59614;51.012;-1.648;2022-12-01T06:04:04;94.93;;;12.35;;
71108;SDS011;59614;51.012;-1.648;2022-12-01T06:06:30;119.07;;;13.40;;
71108;SDS011;59614;51.012;-1.648;2022-12-01T06:08:55;80.97;;;13.07;;
71108;SDS011;59614;51.012;-1.648;2022-12-01T06:11:21;120.70;;;15.38;;
71108;SDS011;59614;51.012;-1.648;2022-12-01T06:13:46;56.72;;;11.77;;
71108;SDS011;59614;51.012;-1.648;2022-12-01T06:16:12;51.92;;;11.88;;
71108;SDS011;59614;51.012;-1.648;2022-12-01T06:18:37;43.97;;;10.65;;
71108;SDS011;59614;51.012;-1.648;2022-12-01T06:21:03;82.70;;;11.98;;
71108;SDS011;59614;51.012;-1.648;2022-12-01T06:23:30;143.13;;;12.27;;
71108;SDS011;59614;51.012;-1.648;2022-12-01T06:25:57;177.30;;;14.82;;
71108;SDS011;59614;51.012;-1.648;2022-12-01T06:28:22;104.07;;;11.88;;
71108;SDS011;59614;51.012;-1.648;2022-12-01T06:30:48;101.15;;;12.10;;
71108;SDS011;59614;51.012;-1.648;2022-12-01T06:33:13;58.10;;;11.05;;
71108;SDS011;59614;51.012;-1.648;2022-12-01T06:35:39;158.90;;;13.57;;
71108;SDS011;59614;51.012;-1.648;2022-12-01T06:38:04;227.95;;;15.18;;
71108;SDS011;59614;51.012;-1.648;2022-12-01T06:40:30;164.57;;;12.45;;
71108;SDS011;59614;51.012;-1.648;2022-12-01T06:42:58;91.22;;;12.65;;
71108;SDS011;59614;51.012;-1.648;2022-12-01T06:45:25;85.07;;;11.20;;
71108;SDS011;59614;51.012;-1.648;2022-12-01T06:47:54;111.78;;;11.95;;
71108;SDS011;59614;51.012;-1.648;2022-12-01T06:50:21;149.23;;;14.85;;
71108;SDS011;59614;51.012;-1.648;2022-12-01T06:52:47;117.10;;;13.45;;
71108;SDS011;59614;51.012;-1.648;2022-12-01T06:55:12;147.25;;;14.30;;
71108;SDS011;59614;51.012;-1.648;2022-12-01T06:57:38;155.98;;;12.73;;
71108;SDS011;59614;51.012;-1.648;2022-12-01T07:00:04;200.20;;;16.23;;
71108;SDS011;59614;51.012;-1.648;2022-12-01T07:02:30;110.28;;;13.13;;
71108;SDS011;59614;51.012;-1.648;2022-12-01T07:04:55;117.72;;;13.27;;
71108;SDS011;59614;51.012;-1.648;2022-12-01T07:07:21;160.30;;;14.13;;
71108;SDS011;59614;51.012;-1.648;2022-12-01T07:09:46;120.60;;;13.27;;
71108;SDS011;59614;51.012;-1.648;2022-12-01T07:12:11;101.28;;;13.93;;
71108;SDS011;59614;51.012;-1.648;2022-12-01T07:14:37;62.65;;;12.88;;
71108;SDS011;59614;51.012;-1.648;2022-12-01T07:17:02;207.40;;;17.42;;
71108;SDS011;59614;51.012;-1.648;2022-12-01T07:19:28;256.40;;;20.05;;
71108;SDS011;59614;51.012;-1.648;2022-12-01T07:21:53;186.23;;;16.58;;
71108;SDS011;59614;51.012;-1.648;2022-12-01T07:24:19;115.25;;;15.15;;
71108;SDS011;59614;51.012;-1.648;2022-12-01T07:26:44;99.13;;;16.05;;
71108;SDS011;59614;51.012;-1.648;2022-12-01T07:29:10;99.25;;;16.70;;
71108;SDS011;59614;51.012;-1.648;2022-12-01T07:31:36;86.40;;;15.25;;
71108;SDS011;59614;51.012;-1.648;2022-12-01T07:34:02;106.68;;;14.93;;
71108;SDS011;59614;51.012;-1.648;2022-12-01T07:36:28;84.47;;;13.20;;
71108;SDS011;59614;51.012;-1.648;2022-12-01T07:38:53;117.25;;;13.75;;
71108;SDS011;59614;51.012;-1.648;2022-12-01T07:41:19;59.75;;;12.73;;
71108;SDS011;59614;51.012;-1.648;2022-12-01T07:43:45;107.18;;;14.57;;
71108;SDS011;59614;51.012;-1.648;2022-12-01T07:46:12;175.05;;;15.70;;
71108;SDS011;59614;51.012;-1.648;2022-12-01T07:48:38;96.90;;;13.57;;
71108;SDS011;59614;51.012;-1.648;2022-12-01T07:51:05;63.67;;;13.48;;
71108;SDS011;59614;51.012;-1.648;2022-12-01T07:53:31;79.07;;;14.25;;
71108;SDS011;59614;51.012;-1.648;2022-12-01T07:55:57;107.22;;;14.80;;
71108;SDS011;59614;51.012;-1.648;2022-12-01T07:58:23;62.58;;;13.32;;
71108;SDS011;59614;51.012;-1.648;2022-12-01T08:00:48;69.55;;;14.32;;
71108;SDS011;59614;51.012;-1.648;2022-12-01T08:03:14;57.15;;;14.23;;
71108;SDS011;59614;51.012;-1.648;2022-12-01T08:05:39;47.92;;;12.10;;
71108;SDS011;59614;51.012;-1.648;2022-12-01T08:08:05;64.68;;;12.75;;
71108;SDS011;59614;51.012;-1.648;2022-12-01T08:10:30;151.30;;;15.55;;
71108;SDS011;59614;51.012;-1.648;2022-12-01T08:12:56;61.22;;;12.40;;
71108;SDS011;59614;51.012;-1.648;2022-12-01T08:15:21;53.70;;;12.65;;
71108;SDS011;59614;51.012;-1.648;2022-12-01T08:17:47;49.42;;;12.18;;
71108;SDS011;59614;51.012;-1.648;2022-12-01T08:20:12;58.42;;;14.43;;
71108;SDS011;59614;51.012;-1.648;2022-12-01T08:22:39;46.95;;;12.40;;
71108;SDS011;59614;51.012;-1.648;2022-12-01T08:25:05;160.98;;;17.35;;
71108;SDS011;59614;51.012;-1.648;2022-12-01T08:27:31;77.15;;;13.60;;
71108;SDS011;59614;51.012;-1.648;2022-12-01T08:29:57;48.63;;;12.38;;
71108;SDS011;59614;51.012;-1.648;2022-12-01T08:32:22;40.95;;;12.23;;
71108;SDS011;59614;51.012;-1.648;2022-12-01T08:34:48;57.45;;;12.32;;
71108;SDS011;59614;51.012;-1.648;2022-12-01T08:37:13;43.50;;;11.02;;
71108;SDS011;59614;51.012;-1.648;2022-12-01T08:39:39;46.38;;;11.85;;
71108;SDS011;59614;51.012;-1.648;2022-12-01T08:42:04;48.92;;;12.20;;
71108;SDS011;59614;51.012;-1.648;2022-12-01T08:44:30;42.00;;;11.45;;
71108;SDS011;59614;51.012;-1.648;2022-12-01T08:46:55;38.42;;;11.70;;
71108;SDS011;59614;51.012;-1.648;2022-12-01T08:49:21;154.60;;;15.02;;
71108;SDS011;59614;51.012;-1.648;2022-12-01T08:51:47;39.45;;;10.23;;
71108;SDS011;59614;51.012;-1.648;2022-12-01T08:54:13;41.30;;;10.65;;
71108;SDS011;59614;51.012;-1.648;2022-12-01T08:56:40;33.88;;;9.57;;
71108;SDS011;59614;51.012;-1.648;2022-12-01T08:59:07;83.72;;;11.93;;
71108;SDS011;59614;51.012;-1.648;2022-12-01T09:01:33;92.85;;;12.02;;
71108;SDS011;59614;51.012;-1.648;2022-12-01T09:03:59;60.55;;;11.80;;
71108;SDS011;59614;51.012;-1.648;2022-12-01T09:06:30;65.85;;;11.82;;
71108;SDS011;59614;51.012;-1.648;2022-12-01T09:08:59;63.37;;;11.00;;
71108;SDS011;59614;51.012;-1.648;2022-12-01T09:13:50;95.82;;;16.90;;
71108;SDS011;59614;51.012;-1.648;2022-12-01T09:16:16;213.60;;;25.15;;
71108;SDS011;59614;51.012;-1.648;2022-12-01T09:18:42;159.00;;;19.27;;
71108;SDS011;59614;51.012;-1.648;2022-12-01T09:23:36;127.05;;;35.25;;
71108;SDS011;59614;51.012;-1.648;2022-12-01T09:26:02;315.63;;;29.58;;
71108;SDS011;59614;51.012;-1.648;2022-12-01T09:28:27;142.18;;;29.42;;
71108;SDS011;59614;51.012;-1.648;2022-12-01T09:30:53;118.30;;;25.30;;
71108;SDS011;59614;51.012;-1.648;2022-12-01T09:33:18;369.33;;;40.20;;
71108;SDS011;59614;51.012;-1.648;2022-12-01T09:35:43;77.32;;;17.65;;
71108;SDS011;59614;51.012;-1.648;2022-12-01T09:38:09;60.55;;;13.73;;
71108;SDS011;59614;51.012;-1.648;2022-12-01T09:40:36;247.88;;;18.00;;
71108;SDS011;59614;51.012;-1.648;2022-12-01T09:43:05;79.60;;;17.60;;
71108;SDS011;59614;51.012;-1.648;2022-12-01T09:45:38;119.70;;;21.38;;
71108;SDS011;59614;51.012;-1.648;2022-12-01T09:48:09;53.72;;;16.48;;
71108;SDS011;59614;51.012;-1.648;2022-12-01T09:50:45;88.30;;;15.50;;
71108;SDS011;59614;51.012;-1.648;2022-12-01T09:53:12;93.07;;;15.05;;
71108;SDS011;59614;51.012;-1.648;2022-12-01T09:55:44;71.97;;;14.00;;
71108;SDS011;59614;51.012;-1.648;2022-12-01T09:58:13;58.45;;;13.00;;
71108;SDS011;59614;51.012;-1.648;2022-12-01T10:00:42;47.15;;;12.52;;
71108;SDS011;59614;51.012;-1.648;2022-12-01T10:05:46;52.90;;;12.82;;
71108;SDS011;59614;51.012;-1.648;2022-12-01T10:10:45;45.28;;;14.23;;
71108;SDS011;59614;51.012;-1.648;2022-12-01T10:16:10;66.57;;;15.32;;
71108;SDS011;59614;51.012;-1.648;2022-12-01T10:21:39;159.88;;;13.23;;
71108;SDS011;59614;51.012;-1.648;2022-12-01T10:24:45;103.45;;;12.23;;
71108;SDS011;59614;51.012;-1.648;2022-12-01T10:27:41;119.25;;;11.63;;
71108;SDS011;59614;51.012;-1.648;2022-12-01T10:30:25;66.65;;;11.02;;
71108;SDS011;59614;51.012;-1.648;2022-12-01T10:32:54;213.48;;;14.40;;
71108;SDS011;59614;51.012;-1.648;2022-12-01T10:35:24;117.18;;;12.95;;
71108;SDS011;59614;51.012;-1.648;2022-12-01T10:37:58;62.22;;;15.50;;
71108;SDS011;59614;51.012;-1.648;2022-12-01T10:40:26;47.22;;;25.02;;
71108;SDS011;59614;51.012;-1.648;2022-12-01T10:42:52;151.18;;;16.02;;
71108;SDS011;59614;51.012;-1.648;2022-12-01T10:45:22;88.00;;;15.70;;
71108;SDS011;59614;51.012;-1.648;2022-12-01T10:55:50;39.40;;;12.93;;
71108;SDS011;59614;51.012;-1.648;2022-12-01T10:58:26;55.47;;;14.02;;
71108;SDS011;59614;51.012;-1.648;2022-12-01T11:00:56;52.47;;;14.20;;
71108;SDS011;59614;51.012;-1.648;2022-12-01T11:03:34;44.22;;;18.23;;
71108;SDS011;59614;51.012;-1.648;2022-12-01T11:06:01;34.38;;;14.70;;
71108;SDS011;59614;51.012;-1.648;2022-12-01T11:08:31;35.80;;;15.43;;
71108;SDS011;59614;51.012;-1.648;2022-12-01T11:11:05;48.78;;;16.77;;
71108;SDS011;59614;51.012;-1.648;2022-12-01T11:13:48;34.17;;;14.52;;
71108;SDS011;59614;51.012;-1.648;2022-12-01T11:19:08;45.28;;;17.27;;
71108;SDS011;59614;51.012;-1.648;2022-12-01T11:21:50;40.58;;;16.23;;
71108;SDS011;59614;51.012;-1.648;2022-12-01T11:24:54;34.55;;;15.40;;
71108;SDS011;59614;51.012;-1.648;2022-12-01T11:27:21;46.85;;;16.70;;
71108;SDS011;59614;51.012;-1.648;2022-12-01T11:29:49;46.67;;;18.30;;
71108;SDS011;59614;51.012;-1.648;2022-12-01T11:32:29;36.92;;;16.33;;
71108;SDS011;59614;51.012;-1.648;2022-12-01T11:37:42;45.47;;;17.15;;
71108;SDS011;59614;51.012;-1.648;2022-12-01T11:42:57;40.75;;;16.55;;
71108;SDS011;59614;51.012;-1.648;2022-12-01T11:45:27;31.15;;;14.85;;
71108;SDS011;59614;51.012;-1.648;2022-12-01T11:48:06;34.88;;;16.20;;
71108;SDS011;59614;51.012;-1.648;2022-12-01T11:50:37;36.25;;;16.02;;
71108;SDS011;59614;51.012;-1.648;2022-12-01T11:56:42;35.00;;;15.18;;
71108;SDS011;59614;51.012;-1.648;2022-12-01T11:59:02;35.83;;;15.07;;
71108;SDS011;59614;51.012;-1.648;2022-12-01T12:11:07;71.50;;;42.35;;
71108;SDS011;59614;51.012;-1.648;2022-12-01T12:26:24;28.98;;;14.55;;
71108;SDS011;59614;51.012;-1.648;2022-12-01T12:34:12;34.13;;;15.30;;
71108;SDS011;59614;51.012;-1.648;2022-12-01T12:42:50;26.45;;;14.18;;
71108;SDS011;59614;51.012;-1.648;2022-12-01T12:48:45;33.53;;;17.63;;
71108;SDS011;59614;51.012;-1.648;2022-12-01T12:51:18;27.65;;;15.15;;
71108;SDS011;59614;51.012;-1.648;2022-12-01T12:56:48;24.00;;;13.88;;
71108;SDS011;59614;51.012;-1.648;2022-12-01T13:04:31;25.70;;;15.15;;
71108;SDS011;59614;51.012;-1.648;2022-12-01T13:07:52;25.98;;;14.75;;
71108;SDS011;59614;51.012;-1.648;2022-12-01T13:10:13;54.83;;;23.35;;
71108;SDS011;59614;51.012;-1.648;2022-12-01T13:12:50;38.25;;;18.17;;
71108;SDS011;59614;51.012;-1.648;2022-12-01T13:15:20;89.32;;;32.28;;
71108;SDS011;59614;51.012;-1.648;2022-12-01T13:18:02;71.85;;;27.33;;
71108;SDS011;59614;51.012;-1.648;2022-12-01T13:20:37;81.60;;;29.83;;
71108;SDS011;59614;51.012;-1.648;2022-12-01T13:23:04;30.75;;;16.25;;
71108;SDS011;59614;51.012;-1.648;2022-12-01T13:25:32;44.60;;;18.77;;
71108;SDS011;59614;51.012;-1.648;2022-12-01T13:28:02;59.28;;;24.50;;
71108;SDS011;59614;51.012;-1.648;2022-12-01T13:30:31;45.40;;;21.45;;
71108;SDS011;59614;51.012;-1.648;2022-12-01T13:33:00;33.30;;;17.10;;
71108;SDS011;59614;51.012;-1.648;2022-12-01T13:37:56;26.17;;;15.33;;
71108;SDS011;59614;51.012;-1.648;2022-12-01T13:40:46;30.10;;;16.67;;
71108;SDS011;59614;51.012;-1.648;2022-12-01T13:43:17;24.83;;;14.15;;
71108;SDS011;59614;51.012;-1.648;2022-12-01T13:45:45;57.47;;;28.27;;
71108;SDS011;59614;51.012;-1.648;2022-12-01T13:51:02;22.23;;;13.98;;
71108;SDS011;59614;51.012;-1.648;2022-12-01T13:53:37;27.52;;;15.25;;
71108;SDS011;59614;51.012;-1.648;2022-12-01T13:58:51;29.55;;;16.33;;
71108;SDS011;59614;51.012;-1.648;2022-12-01T14:03:56;24.02;;;12.88;;
71108;SDS011;59614;51.012;-1.648;2022-12-01T14:06:39;22.83;;;13.13;;
71108;SDS011;59614;51.012;-1.648;2022-12-01T14:09:23;20.83;;;12.23;;
71108;SDS011;59614;51.012;-1.648;2022-12-01T14:11:57;22.27;;;13.35;;
71108;SDS011;59614;51.012;-1.648;2022-12-01T14:15:43;20.83;;;13.35;;
71108;SDS011;59614;51.012;-1.648;2022-12-01T14:18:05;21.88;;;11.80;;
71108;SDS011;59614;51.012;-1.648;2022-12-01T14:20:50;20.38;;;12.38;;
71108;SDS011;59614;51.012;-1.648;2022-12-01T14:31:19;23.42;;;12.93;;
71108;SDS011;59614;51.012;-1.648;2022-12-01T14:39:24;19.77;;;12.85;;
71108;SDS011;59614;51.012;-1.648;2022-12-01T14:41:49;21.60;;;12.40;;
71108;SDS011;59614;51.012;-1.648;2022-12-01T14:50:21;25.33;;;13.75;;
71108;SDS011;59614;51.012;-1.648;2022-12-01T14:52:54;22.00;;;13.07;;
71108;SDS011;59614;51.012;-1.648;2022-12-01T14:55:26;26.10;;;13.90;;
71108;SDS011;59614;51.012;-1.648;2022-12-01T14:58:04;23.15;;;12.38;;
71108;SDS011;59614;51.012;-1.648;2022-12-01T15:00:35;25.77;;;13.30;;
71108;SDS011;59614;51.012;-1.648;2022-12-01T15:03:04;24.65;;;13.95;;
71108;SDS011;59614;51.012;-1.648;2022-12-01T15:05:42;23.85;;;13.90;;
71108;SDS011;59614;51.012;-1.648;2022-12-01T15:08:16;21.67;;;12.43;;
71108;SDS011;59614;51.012;-1.648;2022-12-01T15:10:55;23.23;;;13.13;;
71108;SDS011;59614;51.012;-1.648;2022-12-01T15:15:58;26.95;;;13.95;;
71108;SDS011;59614;51.012;-1.648;2022-12-01T15:18:30;35.58;;;13.85;;
71108;SDS011;59614;51.012;-1.648;2022-12-01T15:21:03;63.75;;;14.20;;
71108;SDS011;59614;51.012;-1.648;2022-12-01T15:24:00;31.02;;;15.13;;
71108;SDS011;59614;51.012;-1.648;2022-12-01T15:26:28;77.80;;;14.50;;
71108;SDS011;59614;51.012;-1.648;2022-12-01T15:31:49;129.05;;;16.70;;
71108;SDS011;59614;51.012;-1.648;2022-12-01T15:34:26;109.30;;;16.23;;
71108;SDS011;59614;51.012;-1.648;2022-12-01T15:36:55;146.75;;;17.23;;
71108;SDS011;59614;51.012;-1.648;2022-12-01T15:39:25;43.03;;;15.07;;
71108;SDS011;59614;51.012;-1.648;2022-12-01T15:41:55;36.42;;;13.73;;
71108;SDS011;59614;51.012;-1.648;2022-12-01T15:44:25;25.02;;;14.25;;
71108;SDS011;59614;51.012;-1.648;2022-12-01T15:46:53;24.35;;;13.23;;
71108;SDS011;59614;51.012;-1.648;2022-12-01T15:51:51;26.02;;;13.88;;
71108;SDS011;59614;51.012;-1.648;2022-12-01T15:54:22;28.73;;;14.88;;
71108;SDS011;59614;51.012;-1.648;2022-12-01T15:56:53;27.85;;;13.25;;
71108;SDS011;59614;51.012;-1.648;2022-12-01T16:02:03;29.77;;;14.02;;
71108;SDS011;59614;51.012;-1.648;2022-12-01T16:04:31;21.05;;;12.20;;
71108;SDS011;59614;51.012;-1.648;2022-12-01T16:07:00;20.10;;;12.20;;
71108;SDS011;59614;51.012;-1.648;2022-12-01T16:09:42;25.83;;;14.07;;
71108;SDS011;59614;51.012;-1.648;2022-12-01T16:12:20;37.25;;;15.52;;
71108;SDS011;59614;51.012;-1.648;2022-12-01T16:14:55;23.25;;;13.32;;
71108;SDS011;59614;51.012;-1.648;2022-12-01T16:22:56;40.30;;;18.23;;
71108;SDS011;59614;51.012;-1.648;2022-12-01T16:28:00;59.60;;;24.67;;
71108;SDS011;59614;51.012;-1.648;2022-12-01T16:30:27;49.33;;;22.45;;
71108;SDS011;59614;51.012;-1.648;2022-12-01T16:33:00;50.40;;;21.75;;
71108;SDS011;59614;51.012;-1.648;2022-12-01T16:35:31;40.38;;;18.95;;
71108;SDS011;59614;51.012;-1.648;2022-12-01T16:38:03;45.08;;;18.63;;
71108;SDS011;59614;51.012;-1.648;2022-12-01T16:40:38;34.97;;;16.85;;
71108;SDS011;59614;51.012;-1.648;2022-12-01T16:43:08;33.58;;;16.50;;
71108;SDS011;59614;51.012;-1.648;2022-12-01T16:45:39;30.45;;;15.68;;
71108;SDS011;59614;51.012;-1.648;2022-12-01T16:48:05;36.60;;;16.50;;
71108;SDS011;59614;51.012;-1.648;2022-12-01T16:50:30;35.30;;;16.45;;
71108;SDS011;59614;51.012;-1.648;2022-12-01T16:52:57;37.28;;;20.67;;
71108;SDS011;59614;51.012;-1.648;2022-12-01T16:58:03;38.00;;;20.05;;
71108;SDS011;59614;51.012;-1.648;2022-12-01T17:00:29;37.72;;;19.95;;
71108;SDS011;59614;51.012;-1.648;2022-12-01T17:02:55;42.13;;;20.40;;
71108;SDS011;59614;51.012;-1.648;2022-12-01T17:05:21;35.53;;;17.88;;
71108;SDS011;59614;51.012;-1.648;2022-12-01T17:07:47;35.45;;;17.65;;
71108;SDS011;59614;51.012;-1.648;2022-12-01T17:10:12;29.25;;;16.25;;
71108;SDS011;59614;51.012;-1.648;2022-12-01T17:12:38;40.88;;;18.88;;
71108;SDS011;59614;51.012;-1.648;2022-12-01T17:15:04;39.13;;;20.90;;
71108;SDS011;59614;51.012;-1.648;2022-12-01T17:17:30;36.15;;;19.08;;
71108;SDS011;59614;51.012;-1.648;2022-12-01T17:19:55;34.53;;;17.98;;